createdAt,value
2022-12-20T06:02:54.079Z,0.60
2022-12-20T06:07:58.427Z,0.50
2022-12-20T06:13:02.803Z,0.70
2022-12-20T06:18:08.881Z,0.77
2022-12-20T06:23:15.308Z,0.50
2022-12-20T06:28:22.460Z,0.70
2022-12-20T06:33:28.132Z,0.73
2022-12-20T06:38:32.573Z,0.70
2022-12-20T06:43:36.643Z,0.80
2022-12-20T06:48:41.742Z,0.60
2022-12-20T06:53:46.985Z,1.15
2022-12-20T06:58:51.082Z,0.57
2022-12-20T07:03:56.233Z,0.50
2022-12-20T07:09:00.329Z,0.35
2022-12-20T07:14:04.269Z,0.40
2022-12-20T07:19:12.030Z,0.60
2022-12-20T07:24:15.710Z,0.65
2022-12-20T07:29:19.775Z,0.80
2022-12-20T07:34:24.966Z,0.77
2022-12-20T07:39:30.080Z,0.80
2022-12-20T07:44:33.731Z,0.65
2022-12-20T07:49:38.795Z,0.70
2022-12-20T07:54:47.349Z,0.95
2022-12-20T07:59:55.518Z,0.73
2022-12-20T08:05:01.095Z,0.73
2022-12-20T08:10:06.628Z,0.90
2022-12-20T08:15:11.035Z,0.93
2022-12-20T08:20:16.667Z,0.57
2022-12-20T08:25:21.716Z,0.77
2022-12-20T08:30:25.466Z,0.90
2022-12-20T08:35:30.571Z,0.87
2022-12-20T08:40:34.495Z,1.20
2022-12-20T08:45:38.414Z,0.75
2022-12-20T08:50:43.922Z,0.73
2022-12-20T08:55:48.006Z,1.37
2022-12-20T09:00:51.786Z,1.23
2022-12-20T09:05:57.024Z,1.00
2022-12-20T09:11:06.140Z,1.50
2022-12-20T09:16:10.367Z,1.08
2022-12-20T09:21:15.374Z,1.73
2022-12-20T09:26:20.084Z,1.08
2022-12-20T09:36:30.925Z,1.20
2022-12-20T09:41:37.362Z,1.30
2022-12-20T09:46:42.421Z,1.10
2022-12-20T09:52:08.429Z,1.20
2022-12-20T09:57:19.793Z,1.05
2022-12-20T10:02:55.585Z,1.20
2022-12-20T10:07:56.695Z,0.93
2022-12-20T10:13:12.007Z,0.82
2022-12-20T10:18:33.678Z,0.93
2022-12-20T10:23:45.115Z,0.95
2022-12-20T10:28:53.922Z,0.75
2022-12-20T10:33:58.436Z,0.90
2022-12-20T10:39:05.770Z,1.10
2022-12-20T10:44:20.811Z,1.05
2022-12-20T10:49:31.643Z,0.80
2022-12-20T10:54:38.931Z,0.98
2022-12-20T10:59:45.306Z,1.40
2022-12-20T11:04:59.032Z,0.88
2022-12-20T11:10:18.296Z,0.70
2022-12-20T11:15:29.508Z,1.37
2022-12-20T11:20:43.921Z,1.05
2022-12-20T11:26:15.722Z,1.27
2022-12-20T11:31:27.593Z,0.93
2022-12-20T11:36:40.784Z,1.25
2022-12-20T11:41:56.819Z,1.10
2022-12-20T11:47:18.595Z,1.23
2022-12-20T11:52:30.154Z,1.00
2022-12-20T11:58:02.111Z,0.93
2022-12-20T12:03:14.320Z,0.73
2022-12-20T12:08:22.385Z,0.70
2022-12-20T12:13:30.291Z,0.95
2022-12-20T12:18:35.368Z,0.57
2022-12-20T12:23:47.441Z,0.57
2022-12-20T12:28:56.020Z,0.55
2022-12-20T12:34:10.221Z,0.52
2022-12-20T12:39:39.300Z,0.60
2022-12-20T12:44:52.332Z,0.68
2022-12-20T12:49:57.488Z,0.45
2022-12-20T12:55:01.581Z,0.70
2022-12-20T13:00:48.347Z,0.65
2022-12-20T13:05:52.387Z,0.45
2022-12-20T13:11:02.314Z,0.50
2022-12-20T13:16:12.564Z,0.70
2022-12-20T13:21:19.934Z,0.50
2022-12-20T13:26:51.135Z,0.68
2022-12-20T13:31:56.358Z,0.50
2022-12-20T13:37:00.696Z,0.68
2022-12-20T13:42:34.077Z,0.62
2022-12-20T13:47:46.981Z,0.60
2022-12-20T13:52:51.262Z,0.40
2022-12-20T13:57:55.855Z,0.35
2022-12-20T14:08:09.634Z,0.17
2022-12-20T14:13:22.967Z,0.20
2022-12-20T14:18:28.349Z,0.20
2022-12-20T14:23:37.716Z,0.22
2022-12-20T14:28:44.397Z,0.22
2022-12-20T14:33:50.502Z,0.20
2022-12-20T14:38:54.985Z,0.22
2022-12-20T14:44:02.066Z,0.20
2022-12-20T14:49:26.078Z,0.20
2022-12-20T14:55:06.431Z,0.22
2022-12-20T15:00:11.555Z,0.20
2022-12-20T15:05:49.242Z,0.20
2022-12-20T15:10:55.923Z,0.20
2022-12-20T15:16:05.640Z,0.20
2022-12-20T15:21:16.234Z,0.20
2022-12-20T15:26:21.848Z,0.20
2022-12-20T15:31:33.383Z,0.20
2022-12-20T15:36:39.943Z,0.13
2022-12-20T15:41:47.880Z,0.30
2022-12-20T15:46:52.539Z,0.20
2022-12-20T15:51:59.339Z,0.10
2022-12-20T15:57:07.709Z,0.20
2022-12-20T16:02:22.330Z,0.20
2022-12-20T16:07:27.988Z,0.20
2022-12-20T16:12:35.872Z,0.30
2022-12-20T16:17:39.823Z,0.40
2022-12-20T16:22:45.427Z,0.20
2022-12-20T16:27:49.135Z,0.35
2022-12-20T16:32:53.341Z,0.50
2022-12-20T16:38:00.058Z,0.40
2022-12-20T16:43:04.012Z,0.30
2022-12-20T16:48:08.148Z,0.40
2022-12-20T16:53:16.736Z,0.50
2022-12-20T16:58:20.566Z,0.40
2022-12-20T17:03:24.358Z,0.70
2022-12-20T17:13:53.466Z,0.82
2022-12-20T17:18:59.824Z,0.70
2022-12-20T17:24:07.043Z,0.73
2022-12-20T17:29:11.100Z,0.98
2022-12-20T17:34:18.982Z,0.95
2022-12-20T17:39:26.001Z,1.05
2022-12-20T17:44:30.275Z,0.93
2022-12-20T17:49:34.078Z,1.15
2022-12-20T17:54:40.428Z,1.20
2022-12-20T17:59:44.879Z,1.00
2022-12-20T18:04:49.013Z,1.30
2022-12-20T18:09:54.151Z,1.92
2022-12-20T18:14:58.190Z,3.37
2022-12-20T18:20:01.887Z,2.58
2022-12-20T18:25:08.729Z,2.25
2022-12-20T18:30:13.517Z,1.67
2022-12-20T18:35:17.540Z,2.37
2022-12-20T18:40:22.645Z,1.50
2022-12-20T18:45:30.546Z,2.00
2022-12-20T18:50:37.262Z,1.17
2022-12-20T18:55:42.399Z,1.48
2022-12-20T19:00:46.403Z,1.98
2022-12-20T19:05:53.161Z,1.77
2022-12-20T19:11:01.305Z,1.73
2022-12-20T19:16:08.667Z,2.08
2022-12-20T19:21:14.536Z,3.50
2022-12-20T19:26:21.515Z,2.05
2022-12-20T19:31:27.341Z,2.03
2022-12-20T19:36:32.955Z,2.90
2022-12-20T19:41:38.029Z,2.85
2022-12-20T19:46:41.953Z,2.75
2022-12-20T19:51:45.750Z,2.50
2022-12-20T19:56:50.860Z,2.20
2022-12-20T20:01:54.655Z,2.30
2022-12-20T20:06:58.441Z,3.42
2022-12-20T20:12:03.628Z,4.60
2022-12-20T20:17:07.455Z,3.00
2022-12-20T20:22:11.724Z,3.83
2022-12-20T20:27:16.800Z,3.22
2022-12-20T20:32:20.476Z,3.30
2022-12-20T20:37:24.287Z,3.20
2022-12-20T20:42:29.313Z,5.03
2022-12-20T20:47:33.261Z,3.28
2022-12-20T20:52:36.956Z,2.85
2022-12-20T20:57:42.119Z,1.90
2022-12-20T21:02:46.247Z,1.65
2022-12-20T21:07:50.177Z,2.62
2022-12-20T21:12:55.753Z,2.07
2022-12-20T21:17:59.806Z,1.55
2022-12-20T21:23:03.550Z,1.58
2022-12-20T21:28:09.434Z,1.47
2022-12-20T21:33:13.069Z,1.30
2022-12-20T21:38:16.726Z,2.20
2022-12-20T21:43:21.789Z,1.53
2022-12-20T21:48:26.358Z,1.60
2022-12-20T21:58:35.034Z,1.45
2022-12-20T22:03:39.442Z,1.40
2022-12-20T22:08:43.130Z,1.20
2022-12-20T22:13:48.487Z,1.33
2022-12-20T22:18:53.818Z,1.42
2022-12-20T22:23:58.111Z,2.12
2022-12-20T22:29:05.552Z,1.65
2022-12-20T22:34:09.314Z,1.87
2022-12-20T22:39:14.366Z,1.87
2022-12-20T22:44:19.625Z,1.48
2022-12-20T22:49:23.218Z,1.67
2022-12-20T22:54:27.111Z,1.47
2022-12-20T22:59:32.555Z,1.80
2022-12-20T23:04:36.445Z,1.50
2022-12-20T23:09:40.455Z,1.50
2022-12-20T23:15:04.446Z,1.45
2022-12-20T23:20:26.847Z,1.30
2022-12-20T23:25:30.759Z,1.42
